Time;durP1;ratioP1;P1;durP2;ratioP2;P2;SDS_P1;SDS_P2;PMS_P1;PMS_P2;Temp;Humidity;BMP_temperature;BMP_pressure;BME280_temperature;BME280_humidity;BME280_pressure;Samples;Min_cycle;Max_cycle;Signal;HPM_P1;HPM_P2
2022/12/07 09:42:39;;;;;;;16.90;10.07;;;2.30;99.90;;;;;;5162998;27;20281;-80
2022/12/07 10:01:51;;;;;;;12.93;9.03;;;2.50;99.90;;;;;;5144480;27;20277;-79
2022/12/07 10:05:57;;;;;;;22.70;11.00;;;2.60;99.90;;;;;;5138472;27;20294;-80
2022/12/07 10:09:48;;;;;;;19.10;10.30;;;2.50;99.90;;;;;;5138150;27;20274;-79
2022/12/07 10:13:53;;;;;;;16.17;10.60;;;2.50;99.90;;;;;;5137737;27;20272;-79
2022/12/07 10:17:54;;;;;;;15.73;10.37;;;2.50;99.90;;;;;;5138063;27;20271;-79
2022/12/07 10:22:15;;;;;;;17.57;11.10;;;2.50;99.90;;;;;;5138034;27;20275;-79
2022/12/07 10:25:54;;;;;;;13.67;9.43;;;2.50;99.90;;;;;;5138024;27;20288;-80
2022/12/07 10:29:54;;;;;;;14.67;9.83;;;2.50;99.90;;;;;;5138375;27;20277;-79
2022/12/07 10:33:59;;;;;;;15.77;10.00;;;2.40;99.90;;;;;;5137122;27;20271;-79
2022/12/07 10:38:48;;;;;;;13.60;9.13;;;2.50;99.90;;;;;;5137595;27;20267;-80
2022/12/07 10:41:16;;;;;;;12.13;8.70;;;2.60;99.90;;;;;;5136528;28;20151;-79
2022/12/07 10:44:00;;;;;;;16.27;10.53;;;2.80;99.90;;;;;;5117229;28;20751;-79
2022/12/07 10:46:52;;;;;;;19.20;12.97;;;3.10;99.90;;;;;;5114678;28;20239;-78
2022/12/07 10:49:23;;;;;;;12.63;9.23;;;3.10;99.90;;;;;;5103043;28;20553;-79
2022/12/07 10:52:01;;;;;;;14.00;10.00;;;3.10;99.90;;;;;;5131992;28;20219;-79
2022/12/07 10:54:41;;;;;;;15.27;9.47;;;3.10;99.90;;;;;;5136401;28;20203;-79
2022/12/07 10:57:44;;;;;;;13.87;9.90;;;3.20;99.90;;;;;;5136538;28;20196;-79
2022/12/07 11:00:37;;;;;;;15.03;10.33;;;3.10;99.90;;;;;;5135354;28;20180;-79
2022/12/07 11:03:14;;;;;;;14.67;11.20;;;3.00;99.90;;;;;;5119081;28;20188;-79
2022/12/07 11:06:03;;;;;;;14.10;10.00;;;3.10;99.90;;;;;;5119760;28;20193;-80
2022/12/07 11:08:40;;;;;;;12.47;9.43;;;3.30;99.90;;;;;;5119160;28;20150;-79
2022/12/07 11:11:13;;;;;;;15.27;11.90;;;3.50;99.90;;;;;;5119504;28;20177;-80
2022/12/07 11:14:10;;;;;;;28.87;20.97;;;3.60;99.90;;;;;;5118560;28;20154;-80
2022/12/07 11:17:03;;;;;;;32.83;24.67;;;3.70;99.90;;;;;;5101410;28;20212;-81
2022/12/07 11:19:51;;;;;;;19.90;14.60;;;3.80;99.90;;;;;;5102324;28;20176;-81
2022/12/07 11:22:20;;;;;;;13.90;11.07;;;3.90;99.90;;;;;;5119712;28;20158;-79
2022/12/07 11:24:58;;;;;;;18.97;13.43;;;3.90;99.90;;;;;;5119918;28;20234;-81
2022/12/07 11:27:47;;;;;;;16.93;12.00;;;3.80;99.90;;;;;;5101842;28;20172;-80
2022/12/07 11:30:17;;;;;;;19.03;11.20;;;3.60;99.90;;;;;;5102379;28;20198;-80
2022/12/07 11:32:57;;;;;;;14.30;9.37;;;3.60;99.90;;;;;;5102475;28;20256;-80
2022/12/07 11:35:35;;;;;;;15.23;10.47;;;3.70;99.90;;;;;;5102831;28;20291;-80
2022/12/07 11:38:15;;;;;;;15.50;12.23;;;4.00;99.90;;;;;;5124980;28;20206;-79
2022/12/07 11:40:46;;;;;;;14.33;11.00;;;4.10;99.90;;;;;;5105120;28;20212;-80
2022/12/07 11:43:25;;;;;;;15.20;9.70;;;4.10;99.90;;;;;;5102328;28;20171;-80
2022/12/07 11:46:06;;;;;;;12.67;9.30;;;4.00;99.90;;;;;;5101005;28;20188;-81
2022/12/07 11:48:50;;;;;;;10.73;9.10;;;3.80;99.90;;;;;;5095477;28;20178;-80
2022/12/07 11:51:20;;;;;;;13.40;10.33;;;3.70;99.90;;;;;;5087596;28;20177;-80
2022/12/07 11:53:46;;;;;;;12.27;9.20;;;4.00;99.90;;;;;;5106239;28;20163;-80
2022/12/07 11:56:22;;;;;;;10.73;8.20;;;4.30;99.90;;;;;;5087989;28;20608;-80
2022/12/07 11:58:50;;;;;;;12.27;9.83;;;4.30;99.90;;;;;;5088314;28;20169;-80
2022/12/07 12:01:33;;;;;;;10.93;8.40;;;4.40;99.90;;;;;;5106469;28;20668;-80
2022/12/07 12:04:34;;;;;;;32.70;18.17;;;4.50;99.90;;;;;;5088050;28;20169;-80
2022/12/07 12:07:00;;;;;;;10.70;8.30;;;4.40;99.90;;;;;;5098398;28;20185;-80
2022/12/07 12:09:39;;;;;;;9.30;7.60;;;4.30;99.90;;;;;;5106478;28;20172;-80
2022/12/07 12:12:20;;;;;;;10.27;8.60;;;4.20;99.90;;;;;;5088537;28;20184;-80
2022/12/07 12:14:52;;;;;;;16.13;10.13;;;4.30;99.90;;;;;;5106879;28;20195;-80
2022/12/07 12:17:36;;;;;;;14.60;10.13;;;4.30;99.90;;;;;;5088391;28;20568;-80
2022/12/07 12:20:23;;;;;;;13.13;8.50;;;4.70;99.90;;;;;;5088307;28;20178;-80
2022/12/07 12:23:06;;;;;;;14.20;8.63;;;5.00;99.90;;;;;;5088229;28;20172;-80
2022/12/07 12:25:42;;;;;;;7.57;5.83;;;5.20;99.90;;;;;;5090147;28;20192;-79
2022/12/07 12:28:32;;;;;;;10.47;8.13;;;5.20;99.90;;;;;;5094139;28;20172;-79
2022/12/07 12:31:07;;;;;;;10.97;7.47;;;5.30;99.90;;;;;;5113218;28;20176;-79
2022/12/07 12:33:34;;;;;;;52.83;33.43;;;5.20;99.90;;;;;;5089924;28;20243;-80
2022/12/07 12:36:20;;;;;;;38.77;23.60;;;5.00;99.90;;;;;;5104794;28;20215;-80
2022/12/07 12:39:14;;;;;;;33.97;20.63;;;5.00;99.90;;;;;;5078713;28;20207;-80
2022/12/07 12:44:19;;;;;;;9.07;7.50;;;4.80;99.90;;;;;;5103097;28;20523;-80
2022/12/07 12:46:53;;;;;;;18.80;12.57;;;4.70;99.90;;;;;;5103373;28;20198;-80
2022/12/07 12:49:19;;;;;;;9.97;7.07;;;4.70;99.90;;;;;;5085289;28;20713;-80
2022/12/07 12:51:52;;;;;;;11.30;8.87;;;4.70;99.90;;;;;;5085913;28;20195;-80
2022/12/07 12:54:18;;;;;;;29.80;18.63;;;4.60;99.90;;;;;;5103920;28;20189;-80
2022/12/07 12:57:04;;;;;;;25.93;16.90;;;4.60;99.90;;;;;;5085621;28;20530;-80
2022/12/07 12:59:51;;;;;;;18.57;11.83;;;4.70;99.90;;;;;;5104304;28;20157;-82
2022/12/07 13:02:29;;;;;;;27.70;17.00;;;4.70;99.90;;;;;;5104392;28;20406;-83
2022/12/07 13:04:55;;;;;;;43.47;27.53;;;4.80;99.90;;;;;;5105733;28;20188;-82
2022/12/07 13:07:42;;;;;;;13.37;8.43;;;5.00;99.90;;;;;;5087060;28;20531;-83
2022/12/07 13:10:34;;;;;;;7.43;6.50;;;5.00;99.90;;;;;;5087547;28;20180;-83
2022/12/07 13:13:15;;;;;;;8.87;7.60;;;4.90;99.90;;;;;;5081203;28;20189;-83
2022/12/07 13:15:42;;;;;;;14.37;9.87;;;4.80;99.90;;;;;;5087696;28;20542;-83
2022/12/07 13:18:08;;;;;;;16.20;11.40;;;4.80;99.90;;;;;;5086797;28;20199;-83
2022/12/07 13:20:47;;;;;;;24.20;14.57;;;4.90;99.90;;;;;;5087260;28;20414;-85
2022/12/07 13:23:16;;;;;;;67.03;35.93;;;4.90;99.90;;;;;;5081439;28;20176;-83
2022/12/07 13:25:53;;;;;;;19.33;12.67;;;4.80;99.90;;;;;;5080418;28;20199;-83
2022/12/07 13:28:21;;;;;;;12.17;8.63;;;4.80;99.90;;;;;;5102452;28;20160;-80
2022/12/07 13:30:58;;;;;;;47.60;29.50;;;4.90;99.90;;;;;;5082362;28;20180;-83
2022/12/07 13:33:27;;;;;;;20.57;15.30;;;4.90;99.90;;;;;;5080930;28;20172;-83
2022/12/07 13:35:56;;;;;;;32.90;23.90;;;4.70;99.90;;;;;;5098434;28;20217;-82
2022/12/07 13:38:27;;;;;;;19.23;14.13;;;4.70;99.90;;;;;;5080019;28;20215;-80
2022/12/07 13:41:20;;;;;;;27.40;18.33;;;4.60;99.90;;;;;;5098651;28;20152;-81
2022/12/07 13:43:54;;;;;;;17.03;12.23;;;4.50;99.90;;;;;;5079751;28;20164;-80
2022/12/07 13:46:30;;;;;;;12.80;9.03;;;4.40;99.90;;;;;;5097938;28;20421;-81
2022/12/07 13:48:56;;;;;;;12.83;8.63;;;4.30;99.90;;;;;;5079185;28;20202;-80
2022/12/07 13:51:25;;;;;;;12.30;8.37;;;4.30;99.90;;;;;;5097122;28;20174;-79
2022/12/07 13:53:55;;;;;;;10.83;8.00;;;4.30;99.90;;;;;;5082668;28;20178;-79
2022/12/07 13:56:26;;;;;;;18.37;11.40;;;4.20;99.90;;;;;;5087778;28;20257;-80
2022/12/07 13:58:51;;;;;;;31.50;18.90;;;4.20;99.90;;;;;;5111239;28;20162;-80
2022/12/07 14:01:18;;;;;;;13.90;8.70;;;4.20;99.90;;;;;;5099146;28;20239;-80
2022/12/07 14:03:44;;;;;;;9.77;7.17;;;4.00;99.90;;;;;;5097830;28;20191;-80
2022/12/07 14:06:25;;;;;;;10.50;7.10;;;4.00;99.90;;;;;;5103304;28;20254;-80
2022/12/07 14:09:05;;;;;;;8.00;6.60;;;3.90;99.90;;;;;;5084824;28;20187;-80
2022/12/07 14:11:31;;;;;;;7.70;6.90;;;3.80;99.90;;;;;;5102742;28;20162;-80
2022/12/07 14:14:01;;;;;;;9.67;7.00;;;3.80;99.90;;;;;;5102116;28;20175;-80
2022/12/07 14:16:34;;;;;;;8.63;6.90;;;3.80;99.90;;;;;;5083910;28;20269;-80
2022/12/07 14:19:04;;;;;;;10.03;7.40;;;3.70;99.90;;;;;;5103677;28;20168;-81
2022/12/07 14:21:33;;;;;;;9.10;7.37;;;3.60;99.90;;;;;;5083898;28;20173;-80
2022/12/07 14:24:17;;;;;;;8.83;7.60;;;3.60;99.90;;;;;;5102037;28;20183;-81
2022/12/07 14:26:44;;;;;;;13.80;8.87;;;3.50;99.90;;;;;;5084296;28;20641;-80
2022/12/07 14:29:29;;;;;;;9.40;7.40;;;3.50;99.90;;;;;;5103709;28;20488;-80
2022/12/07 14:31:56;;;;;;;13.10;8.33;;;3.50;99.90;;;;;;5085017;28;20409;-80
2022/12/07 14:34:22;;;;;;;11.43;8.00;;;3.40;99.90;;;;;;5085164;28;20442;-80
2022/12/07 14:36:48;;;;;;;10.73;8.30;;;3.30;99.90;;;;;;5086199;28;20462;-81
2022/12/07 14:39:14;;;;;;;16.13;10.10;;;3.30;99.90;;;;;;5104850;28;20401;-80
2022/12/07 14:41:51;;;;;;;10.93;8.17;;;3.20;99.90;;;;;;5104692;28;20168;-80
2022/12/07 14:44:22;;;;;;;12.97;9.83;;;3.10;99.90;;;;;;5087750;28;20226;-80
2022/12/07 14:46:49;;;;;;;13.87;8.97;;;3.10;99.90;;;;;;5087584;28;20410;-81
2022/12/07 14:49:15;;;;;;;12.37;8.50;;;3.00;99.90;;;;;;5088765;28;20421;-81
2022/12/07 14:51:44;;;;;;;11.83;9.57;;;3.00;99.90;;;;;;5105000;28;20418;-81
2022/12/07 14:54:20;;;;;;;19.47;9.37;;;2.80;99.90;;;;;;5087494;28;20517;-81
2022/12/07 14:56:50;;;;;;;12.90;9.73;;;2.80;99.90;;;;;;5087963;28;20586;-81
2022/12/07 14:59:17;;;;;;;15.83;9.20;;;;;;;;;;5087387;28;20409;-81
2022/12/07 15:01:42;;;;;;;13.33;9.00;;;2.80;99.90;;;;;;5105503;28;20410;-80
2022/12/07 15:04:08;;;;;;;12.87;9.63;;;2.80;99.90;;;;;;5105062;28;20406;-80
2022/12/07 15:06:34;;;;;;;16.37;8.90;;;2.70;99.90;;;;;;5105958;28;20176;-80
2022/12/07 15:09:00;;;;;;;15.90;9.03;;;2.70;99.90;;;;;;5091034;28;20176;-80
2022/12/07 15:11:25;;;;;;;14.10;9.83;;;2.70;99.90;;;;;;5090596;28;20641;-79
2022/12/07 15:14:10;;;;;;;10.83;9.00;;;2.60;99.90;;;;;;5085890;28;20180;-80
2022/12/07 15:16:39;;;;;;;12.90;9.30;;;2.60;99.90;;;;;;5104380;28;20283;-80
2022/12/07 15:19:06;;;;;;;20.80;10.40;;;2.60;99.90;;;;;;5086188;28;20418;-80
2022/12/07 15:21:32;;;;;;;37.90;21.60;;;2.60;99.90;;;;;;5086694;28;20470;-80
2022/12/07 15:23:57;;;;;;;20.40;13.53;;;2.60;99.90;;;;;;5088071;28;20237;-80
2022/12/07 15:26:23;;;;;;;27.83;15.67;;;2.60;99.90;;;;;;5091278;28;20191;-80
2022/12/07 15:28:49;;;;;;;16.93;11.60;;;2.60;99.90;;;;;;5113066;28;20219;-80
2022/12/07 15:31:16;;;;;;;18.93;12.03;;;2.60;99.90;;;;;;5095467;28;20184;-80
2022/12/07 15:33:43;;;;;;;13.67;11.47;;;2.60;99.90;;;;;;5091823;28;20183;-80
2022/12/07 15:36:23;;;;;;;18.93;14.57;;;2.50;99.90;;;;;;5106060;28;20425;-80
2022/12/07 15:38:49;;;;;;;20.43;14.60;;;2.50;99.90;;;;;;5088357;28;20493;-80
2022/12/07 15:41:15;;;;;;;18.60;13.03;;;2.50;99.90;;;;;;5107041;28;20803;-80
2022/12/07 15:46:33;;;;;;;28.63;19.33;;;2.50;99.90;;;;;;5107524;28;20429;-80
2022/12/07 15:49:00;;;;;;;23.70;17.17;;;2.40;99.90;;;;;;5089106;28;20479;-80
2022/12/07 15:51:26;;;;;;;23.40;13.83;;;2.40;99.90;;;;;;5089042;28;20500;-80
2022/12/07 15:53:52;;;;;;;20.27;14.60;;;2.40;99.90;;;;;;5107313;28;20402;-80
2022/12/07 15:56:18;;;;;;;34.20;20.80;;;2.40;99.90;;;;;;5088754;28;20275;-80
2022/12/07 15:58:44;;;;;;;36.27;21.80;;;2.40;99.90;;;;;;5089126;28;20433;-81
2022/12/07 16:01:13;;;;;;;25.57;17.53;;;2.40;99.90;;;;;;5090114;28;20176;-80
2022/12/07 16:03:39;;;;;;;19.03;14.37;;;2.40;99.90;;;;;;5090166;28;20195;-80
2022/12/07 16:06:05;;;;;;;19.20;14.03;;;2.40;99.90;;;;;;5108102;28;20838;-80
2022/12/07 16:08:31;;;;;;;21.80;16.43;;;2.40;99.90;;;;;;5090219;28;20198;-80
2022/12/07 16:10:56;;;;;;;19.43;15.53;;;2.40;99.90;;;;;;5092461;28;20201;-79
2022/12/07 16:13:22;;;;;;;19.03;14.13;;;2.40;99.90;;;;;;5099121;28;20224;-79
2022/12/07 16:15:48;;;;;;;16.40;11.97;;;2.40;99.90;;;;;;5115045;28;20200;-79
2022/12/07 16:18:13;;;;;;;15.47;11.93;;;2.30;99.90;;;;;;5108925;28;20192;-80
2022/12/07 16:20:39;;;;;;;20.37;15.07;;;2.30;99.90;;;;;;5082802;28;20184;-79
2022/12/07 16:23:05;;;;;;;26.43;17.03;;;2.30;99.90;;;;;;5083328;28;20176;-79
2022/12/07 16:25:31;;;;;;;29.60;18.13;;;2.30;99.90;;;;;;5082291;28;20203;-80
2022/12/07 16:27:57;;;;;;;23.73;16.97;;;2.30;99.90;;;;;;5101238;28;20180;-80
2022/12/07 16:30:22;;;;;;;25.50;18.17;;;2.30;99.90;;;;;;5100592;28;20183;-82
2022/12/07 16:32:48;;;;;;;21.23;13.83;;;2.30;99.90;;;;;;5099483;28;20597;-79
2022/12/07 16:35:14;;;;;;;28.37;17.93;;;2.20;99.90;;;;;;5082302;28;20329;-79
2022/12/07 16:37:42;;;;;;;22.00;14.53;;;2.10;99.90;;;;;;5083303;28;20218;-79
2022/12/07 16:40:08;;;;;;;23.77;15.33;;;2.10;99.90;;;;;;5082096;28;20669;-79
2022/12/07 16:42:34;;;;;;;20.70;15.80;;;2.00;99.90;;;;;;5100515;28;20403;-82
2022/12/07 16:45:01;;;;;;;27.03;18.50;;;2.00;99.90;;;;;;5080991;28;20471;-82
2022/12/07 16:47:27;;;;;;;26.93;19.10;;;2.00;99.90;;;;;;5081814;28;20203;-81
2022/12/07 16:49:53;;;;;;;22.63;15.93;;;2.00;99.90;;;;;;5081163;28;20551;-80
2022/12/07 16:52:19;;;;;;;27.17;18.03;;;2.00;99.90;;;;;;5098521;28;20175;-81
2022/12/07 16:54:46;;;;;;;23.97;16.57;;;2.00;99.90;;;;;;5079839;28;20214;-81
2022/12/07 16:57:11;;;;;;;29.47;19.27;;;2.00;99.90;;;;;;5079395;28;20515;-81
2022/12/07 16:59:37;;;;;;;27.30;17.53;;;2.00;99.90;;;;;;5080861;28;20422;-81
2022/12/07 17:02:03;;;;;;;31.77;18.90;;;2.00;99.90;;;;;;5084443;28;20176;-80
2022/12/07 17:04:29;;;;;;;27.73;17.97;;;2.00;99.90;;;;;;5089037;28;20265;-81
2022/12/07 17:06:55;;;;;;;25.27;16.67;;;1.90;99.90;;;;;;5098020;28;20430;-80
2022/12/07 17:09:20;;;;;;;32.70;19.50;;;1.90;99.90;;;;;;5103451;28;20160;-81
2022/12/07 17:11:46;;;;;;;26.47;17.70;;;1.90;99.90;;;;;;5099756;28;20161;-81
2022/12/07 17:16:56;;;;;;;29.07;18.83;;;1.80;99.90;;;;;;5104155;28;20605;-80
2022/12/07 17:19:22;;;;;;;28.03;18.47;;;1.80;99.90;;;;;;5085613;28;20180;-81
2022/12/07 17:21:48;;;;;;;33.40;18.50;;;1.80;99.90;;;;;;5085368;28;20203;-81
2022/12/07 17:24:16;;;;;;;26.77;18.43;;;1.80;99.90;;;;;;5085098;28;20173;-81
2022/12/07 17:26:43;;;;;;;21.80;15.37;;;1.80;99.90;;;;;;5103359;28;20232;-81
2022/12/07 17:29:12;;;;;;;44.97;26.10;;;1.80;99.90;;;;;;5103057;28;20415;-80
2022/12/07 17:31:38;;;;;;;62.47;34.53;;;1.80;99.90;;;;;;5084979;28;20426;-81
2022/12/07 17:34:04;;;;;;;55.53;28.30;;;1.80;99.90;;;;;;5085362;28;20475;-81
2022/12/07 17:36:30;;;;;;;183.03;69.57;;;1.80;99.90;;;;;;5085196;28;20192;-82
